sensor_id;sensor_type;location;lat;lon;timestamp;temperature;humidity
37410;DHT22;23275;48.914;12.566;2023-06-14T00:01:11;14.80;99.90
37410;DHT22;23275;48.914;12.566;2023-06-14T00:03:38;14.70;99.90
37410;DHT22;23275;48.914;12.566;2023-06-14T00:06:04;14.60;99.90
37410;DHT22;23275;48.914;12.566;2023-06-14T00:08:30;14.60;99.90
37410;DHT22;23275;48.914;12.566;2023-06-14T00:10:55;14.50;99.90
37410;DHT22;23275;48.914;12.566;2023-06-14T00:13:21;14.50;99.90
37410;DHT22;23275;48.914;12.566;2023-06-14T00:15:47;14.50;99.90
37410;DHT22;23275;48.914;12.566;2023-06-14T00:18:13;14.40;99.90
37410;DHT22;23275;48.914;12.566;2023-06-14T00:20:38;14.30;99.90
37410;DHT22;23275;48.914;12.566;2023-06-14T00:23:04;14.30;99.90
37410;DHT22;23275;48.914;12.566;2023-06-14T00:25:30;14.10;99.90
37410;DHT22;23275;48.914;12.566;2023-06-14T00:27:56;14.10;99.90
37410;DHT22;23275;48.914;12.566;2023-06-14T00:30:22;14.10;99.90
37410;DHT22;23275;48.914;12.566;2023-06-14T00:32:48;14.00;99.90
37410;DHT22;23275;48.914;12.566;2023-06-14T00:35:14;13.90;99.90
37410;DHT22;23275;48.914;12.566;2023-06-14T00:37:40;13.90;99.90
37410;DHT22;23275;48.914;12.566;2023-06-14T00:40:06;13.90;99.90
37410;DHT22;23275;48.914;12.566;2023-06-14T00:42:32;13.80;99.90
37410;DHT22;23275;48.914;12.566;2023-06-14T00:45:00;13.80;99.90
37410;DHT22;23275;48.914;12.566;2023-06-14T00:47:25;13.80;99.90
37410;DHT22;23275;48.914;12.566;2023-06-14T00:49:53;13.80;99.90
37410;DHT22;23275;48.914;12.566;2023-06-14T00:52:19;13.80;99.90
37410;DHT22;23275;48.914;12.566;2023-06-14T00:54:46;13.80;99.90
37410;DHT22;23275;48.914;12.566;2023-06-14T00:57:12;13.70;99.90
37410;DHT22;23275;48.914;12.566;2023-06-14T00:59:44;13.70;99.90
37410;DHT22;23275;48.914;12.566;2023-06-14T01:02:10;13.70;99.90
37410;DHT22;23275;48.914;12.566;2023-06-14T01:04:37;13.70;99.90
37410;DHT22;23275;48.914;12.566;2023-06-14T01:15:05;13.50;99.90
37410;DHT22;23275;48.914;12.566;2023-06-14T01:17:32;13.50;99.90
37410;DHT22;23275;48.914;12.566;2023-06-14T01:20:01;13.50;99.90
37410;DHT22;23275;48.914;12.566;2023-06-14T01:22:26;13.50;99.90
37410;DHT22;23275;48.914;12.566;2023-06-14T01:24:53;13.50;99.90
37410;DHT22;23275;48.914;12.566;2023-06-14T01:27:22;13.50;99.90
37410;DHT22;23275;48.914;12.566;2023-06-14T01:29:52;13.50;99.90
37410;DHT22;23275;48.914;12.566;2023-06-14T01:32:25;13.50;99.90
37410;DHT22;23275;48.914;12.566;2023-06-14T01:34:51;13.50;99.90
37410;DHT22;23275;48.914;12.566;2023-06-14T01:37:18;13.40;99.90
37410;DHT22;23275;48.914;12.566;2023-06-14T01:39:44;13.20;99.90
37410;DHT22;23275;48.914;12.566;2023-06-14T01:42:11;13.20;99.90
37410;DHT22;23275;48.914;12.566;2023-06-14T01:44:38;13.10;99.90
37410;DHT22;23275;48.914;12.566;2023-06-14T01:47:05;13.10;99.90
37410;DHT22;23275;48.914;12.566;2023-06-14T01:49:34;13.10;99.90
37410;DHT22;23275;48.914;12.566;2023-06-14T01:52:00;13.10;99.90
37410;DHT22;23275;48.914;12.566;2023-06-14T01:54:26;13.10;99.90
37410;DHT22;23275;48.914;12.566;2023-06-14T01:56:52;13.10;99.90
37410;DHT22;23275;48.914;12.566;2023-06-14T01:59:18;13.10;99.90
37410;DHT22;23275;48.914;12.566;2023-06-14T02:01:44;13.10;99.90
37410;DHT22;23275;48.914;12.566;2023-06-14T02:04:11;13.10;99.90
37410;DHT22;23275;48.914;12.566;2023-06-14T02:06:37;13.00;99.90
37410;DHT22;23275;48.914;12.566;2023-06-14T02:09:02;13.00;99.90
37410;DHT22;23275;48.914;12.566;2023-06-14T02:11:28;13.00;99.90
37410;DHT22;23275;48.914;12.566;2023-06-14T02:13:55;12.90;99.90
37410;DHT22;23275;48.914;12.566;2023-06-14T02:16:21;12.80;99.90
37410;DHT22;23275;48.914;12.566;2023-06-14T02:18:47;12.80;99.90
37410;DHT22;23275;48.914;12.566;2023-06-14T02:21:14;12.80;99.90
37410;DHT22;23275;48.914;12.566;2023-06-14T02:23:40;12.80;99.90
37410;DHT22;23275;48.914;12.566;2023-06-14T02:26:05;12.80;99.90
37410;DHT22;23275;48.914;12.566;2023-06-14T02:28:31;12.90;99.90
37410;DHT22;23275;48.914;12.566;2023-06-14T02:30:57;12.80;99.90
37410;DHT22;23275;48.914;12.566;2023-06-14T02:33:22;12.80;99.90
37410;DHT22;23275;48.914;12.566;2023-06-14T02:35:48;12.70;99.90
37410;DHT22;23275;48.914;12.566;2023-06-14T02:38:13;12.60;99.90
37410;DHT22;23275;48.914;12.566;2023-06-14T02:40:39;12.50;99.90
37410;DHT22;23275;48.914;12.566;2023-06-14T02:43:07;12.40;99.90
37410;DHT22;23275;48.914;12.566;2023-06-14T02:45:33;12.30;99.90
37410;DHT22;23275;48.914;12.566;2023-06-14T02:47:58;12.20;99.90
37410;DHT22;23275;48.914;12.566;2023-06-14T02:50:24;12.20;99.90
37410;DHT22;23275;48.914;12.566;2023-06-14T02:52:50;12.10;99.90
37410;DHT22;23275;48.914;12.566;2023-06-14T02:55:15;12.00;99.90
37410;DHT22;23275;48.914;12.566;2023-06-14T02:57:41;12.00;99.90
37410;DHT22;23275;48.914;12.566;2023-06-14T03:00:07;12.00;99.90
37410;DHT22;23275;48.914;12.566;2023-06-14T03:02:38;11.90;99.90
37410;DHT22;23275;48.914;12.566;2023-06-14T03:05:04;12.00;99.90
37410;DHT22;23275;48.914;12.566;2023-06-14T03:07:31;12.00;99.90
37410;DHT22;23275;48.914;12.566;2023-06-14T03:09:58;12.10;99.90
37410;DHT22;23275;48.914;12.566;2023-06-14T03:12:23;12.10;99.90
37410;DHT22;23275;48.914;12.566;2023-06-14T03:14:49;12.20;99.90
37410;DHT22;23275;48.914;12.566;2023-06-14T03:17:16;12.30;99.90
37410;DHT22;23275;48.914;12.566;2023-06-14T03:19:43;12.40;99.90
37410;DHT22;23275;48.914;12.566;2023-06-14T03:22:08;12.40;99.90
37410;DHT22;23275;48.914;12.566;2023-06-14T03:24:34;12.40;99.90
37410;DHT22;23275;48.914;12.566;2023-06-14T03:27:02;12.40;99.90
37410;DHT22;23275;48.914;12.566;2023-06-14T03:29:27;12.50;99.90
37410;DHT22;23275;48.914;12.566;2023-06-14T03:32:01;12.50;99.90
37410;DHT22;23275;48.914;12.566;2023-06-14T03:34:27;12.40;99.90
37410;DHT22;23275;48.914;12.566;2023-06-14T03:36:53;12.40;99.90
37410;DHT22;23275;48.914;12.566;2023-06-14T03:39:19;12.40;99.90
37410;DHT22;23275;48.914;12.566;2023-06-14T03:41:45;12.40;99.90
37410;DHT22;23275;48.914;12.566;2023-06-14T03:44:10;12.40;99.90
37410;DHT22;23275;48.914;12.566;2023-06-14T03:46:36;12.30;99.90
37410;DHT22;23275;48.914;12.566;2023-06-14T03:49:02;12.40;99.90
37410;DHT22;23275;48.914;12.566;2023-06-14T03:51:28;12.40;99.90
37410;DHT22;23275;48.914;12.566;2023-06-14T03:53:54;12.30;99.90
37410;DHT22;23275;48.914;12.566;2023-06-14T03:56:21;12.30;99.90
37410;DHT22;23275;48.914;12.566;2023-06-14T03:58:46;12.20;99.90
37410;DHT22;23275;48.914;12.566;2023-06-14T04:01:12;12.20;99.90
37410;DHT22;23275;48.914;12.566;2023-06-14T04:03:38;12.20;99.90
37410;DHT22;23275;48.914;12.566;2023-06-14T04:06:05;12.20;99.90
37410;DHT22;23275;48.914;12.566;2023-06-14T04:08:31;12.20;99.90
37410;DHT22;23275;48.914;12.566;2023-06-14T04:10:57;12.20;99.90
37410;DHT22;23275;48.914;12.566;2023-06-14T04:13:22;12.20;99.90
37410;DHT22;23275;48.914;12.566;2023-06-14T04:15:48;12.30;99.90
37410;DHT22;23275;48.914;12.566;2023-06-14T04:18:14;12.30;99.90
37410;DHT22;23275;48.914;12.566;2023-06-14T04:20:39;12.30;99.90
37410;DHT22;23275;48.914;12.566;2023-06-14T04:23:17;12.30;99.90
37410;DHT22;23275;48.914;12.566;2023-06-14T04:25:47;12.30;99.90
37410;DHT22;23275;48.914;12.566;2023-06-14T04:28:13;12.40;99.90
37410;DHT22;23275;48.914;12.566;2023-06-14T04:30:42;12.50;99.90
37410;DHT22;23275;48.914;12.566;2023-06-14T04:33:08;12.60;99.90
37410;DHT22;23275;48.914;12.566;2023-06-14T04:35:36;12.70;99.90
37410;DHT22;23275;48.914;12.566;2023-06-14T04:38:05;12.80;99.90
37410;DHT22;23275;48.914;12.566;2023-06-14T04:40:34;12.90;99.90
37410;DHT22;23275;48.914;12.566;2023-06-14T04:43:01;13.00;99.90
37410;DHT22;23275;48.914;12.566;2023-06-14T04:45:30;13.10;99.90
37410;DHT22;23275;48.914;12.566;2023-06-14T04:47:58;13.10;99.90
37410;DHT22;23275;48.914;12.566;2023-06-14T04:50:24;13.30;99.90
37410;DHT22;23275;48.914;12.566;2023-06-14T04:52:50;13.40;99.90
37410;DHT22;23275;48.914;12.566;2023-06-14T04:55:17;13.60;99.90
37410;DHT22;23275;48.914;12.566;2023-06-14T04:57:44;13.80;99.90
37410;DHT22;23275;48.914;12.566;2023-06-14T05:00:10;14.00;99.90
37410;DHT22;23275;48.914;12.566;2023-06-14T05:02:37;14.20;99.90
37410;DHT22;23275;48.914;12.566;2023-06-14T05:05:03;14.50;99.90
37410;DHT22;23275;48.914;12.566;2023-06-14T05:07:32;14.70;99.90
37410;DHT22;23275;48.914;12.566;2023-06-14T05:09:59;14.90;99.90
37410;DHT22;23275;48.914;12.566;2023-06-14T05:12:25;15.10;99.90
37410;DHT22;23275;48.914;12.566;2023-06-14T05:14:50;15.30;99.90
37410;DHT22;23275;48.914;12.566;2023-06-14T05:17:16;15.50;99.90
37410;DHT22;23275;48.914;12.566;2023-06-14T05:19:42;15.60;99.90
37410;DHT22;23275;48.914;12.566;2023-06-14T05:22:08;15.70;99.90
37410;DHT22;23275;48.914;12.566;2023-06-14T05:24:33;15.90;99.90
37410;DHT22;23275;48.914;12.566;2023-06-14T05:26:59;16.10;99.90
37410;DHT22;23275;48.914;12.566;2023-06-14T05:29:25;16.30;99.90
37410;DHT22;23275;48.914;12.566;2023-06-14T05:31:51;16.40;99.90
37410;DHT22;23275;48.914;12.566;2023-06-14T05:34:16;16.60;99.90
37410;DHT22;23275;48.914;12.566;2023-06-14T05:36:42;16.70;99.90
37410;DHT22;23275;48.914;12.566;2023-06-14T05:39:07;16.70;99.90
37410;DHT22;23275;48.914;12.566;2023-06-14T05:41:33;16.80;99.90
37410;DHT22;23275;48.914;12.566;2023-06-14T05:43:59;17.00;99.90
37410;DHT22;23275;48.914;12.566;2023-06-14T05:46:26;17.20;99.90
37410;DHT22;23275;48.914;12.566;2023-06-14T05:48:52;17.40;99.90
37410;DHT22;23275;48.914;12.566;2023-06-14T05:51:18;17.50;99.90
37410;DHT22;23275;48.914;12.566;2023-06-14T05:53:46;17.60;99.90
37410;DHT22;23275;48.914;12.566;2023-06-14T05:56:13;17.70;99.90
37410;DHT22;23275;48.914;12.566;2023-06-14T05:58:39;17.90;99.90
37410;DHT22;23275;48.914;12.566;2023-06-14T06:01:05;18.00;99.90
37410;DHT22;23275;48.914;12.566;2023-06-14T06:03:30;18.00;99.90
37410;DHT22;23275;48.914;12.566;2023-06-14T06:05:56;18.00;99.90
37410;DHT22;23275;48.914;12.566;2023-06-14T06:08:21;18.10;99.90
37410;DHT22;23275;48.914;12.566;2023-06-14T06:10:47;18.30;99.90
37410;DHT22;23275;48.914;12.566;2023-06-14T06:13:12;18.50;99.90
37410;DHT22;23275;48.914;12.566;2023-06-14T06:15:38;18.60;99.90
37410;DHT22;23275;48.914;12.566;2023-06-14T06:18:04;18.70;99.90
37410;DHT22;23275;48.914;12.566;2023-06-14T06:20:29;18.60;99.90
37410;DHT22;23275;48.914;12.566;2023-06-14T06:23:00;18.60;99.90
37410;DHT22;23275;48.914;12.566;2023-06-14T06:25:26;18.70;99.90
37410;DHT22;23275;48.914;12.566;2023-06-14T06:27:53;18.80;99.90
37410;DHT22;23275;48.914;12.566;2023-06-14T06:30:19;18.90;99.90
37410;DHT22;23275;48.914;12.566;2023-06-14T06:32:46;18.90;99.90
37410;DHT22;23275;48.914;12.566;2023-06-14T06:35:12;19.00;99.90
37410;DHT22;23275;48.914;12.566;2023-06-14T06:37:41;19.10;99.90
37410;DHT22;23275;48.914;12.566;2023-06-14T06:40:07;19.30;99.90
37410;DHT22;23275;48.914;12.566;2023-06-14T06:42:34;19.40;99.90
37410;DHT22;23275;48.914;12.566;2023-06-14T06:45:00;19.50;99.90
37410;DHT22;23275;48.914;12.566;2023-06-14T06:47:26;19.60;99.90
37410;DHT22;23275;48.914;12.566;2023-06-14T06:49:51;19.50;99.90
37410;DHT22;23275;48.914;12.566;2023-06-14T06:52:17;19.50;99.90
37410;DHT22;23275;48.914;12.566;2023-06-14T06:54:42;19.60;99.90
37410;DHT22;23275;48.914;12.566;2023-06-14T06:57:08;19.70;99.90
37410;DHT22;23275;48.914;12.566;2023-06-14T06:59:36;20.00;99.90
37410;DHT22;23275;48.914;12.566;2023-06-14T07:02:02;20.20;99.90
37410;DHT22;23275;48.914;12.566;2023-06-14T07:04:27;20.50;99.90
37410;DHT22;23275;48.914;12.566;2023-06-14T07:06:53;20.80;99.90
37410;DHT22;23275;48.914;12.566;2023-06-14T07:09:18;21.00;99.90
37410;DHT22;23275;48.914;12.566;2023-06-14T07:11:45;20.90;99.90
37410;DHT22;23275;48.914;12.566;2023-06-14T07:14:11;20.80;99.90
37410;DHT22;23275;48.914;12.566;2023-06-14T07:16:37;21.00;99.90
37410;DHT22;23275;48.914;12.566;2023-06-14T07:19:03;21.10;98.90
37410;DHT22;23275;48.914;12.566;2023-06-14T07:21:29;21.40;99.10
37410;DHT22;23275;48.914;12.566;2023-06-14T07:23:54;21.70;96.00
37410;DHT22;23275;48.914;12.566;2023-06-14T07:26:20;21.90;96.10
37410;DHT22;23275;48.914;12.566;2023-06-14T07:28:46;22.10;95.70
37410;DHT22;23275;48.914;12.566;2023-06-14T07:31:13;22.20;94.00
37410;DHT22;23275;48.914;12.566;2023-06-14T07:33:41;22.20;93.90
37410;DHT22;23275;48.914;12.566;2023-06-14T07:36:08;22.20;94.40
37410;DHT22;23275;48.914;12.566;2023-06-14T07:38:34;22.20;92.20
37410;DHT22;23275;48.914;12.566;2023-06-14T07:41:00;22.20;94.60
37410;DHT22;23275;48.914;12.566;2023-06-14T07:43:26;22.30;94.60
37410;DHT22;23275;48.914;12.566;2023-06-14T07:45:51;22.40;92.70
37410;DHT22;23275;48.914;12.566;2023-06-14T07:48:17;22.70;92.20
37410;DHT22;23275;48.914;12.566;2023-06-14T07:50:43;22.90;91.20
37410;DHT22;23275;48.914;12.566;2023-06-14T07:53:08;22.90;90.80
37410;DHT22;23275;48.914;12.566;2023-06-14T07:55:34;23.10;90.20
37410;DHT22;23275;48.914;12.566;2023-06-14T07:58:02;23.30;90.50
37410;DHT22;23275;48.914;12.566;2023-06-14T08:00:28;23.20;91.80
37410;DHT22;23275;48.914;12.566;2023-06-14T08:02:53;23.30;92.20
37410;DHT22;23275;48.914;12.566;2023-06-14T08:05:24;23.30;90.70
37410;DHT22;23275;48.914;12.566;2023-06-14T08:07:51;23.30;87.60
37410;DHT22;23275;48.914;12.566;2023-06-14T08:10:17;23.20;87.10
37410;DHT22;23275;48.914;12.566;2023-06-14T08:12:43;23.40;86.40
37410;DHT22;23275;48.914;12.566;2023-06-14T08:15:09;23.50;84.00
37410;DHT22;23275;48.914;12.566;2023-06-14T08:17:35;23.70;86.80
37410;DHT22;23275;48.914;12.566;2023-06-14T08:20:00;23.90;89.60
37410;DHT22;23275;48.914;12.566;2023-06-14T08:22:26;24.20;85.70
37410;DHT22;23275;48.914;12.566;2023-06-14T08:24:53;23.80;81.70
37410;DHT22;23275;48.914;12.566;2023-06-14T08:27:19;23.80;81.10
37410;DHT22;23275;48.914;12.566;2023-06-14T08:29:45;23.90;79.60
37410;DHT22;23275;48.914;12.566;2023-06-14T08:32:11;24.00;85.10
37410;DHT22;23275;48.914;12.566;2023-06-14T08:34:36;24.00;79.50
37410;DHT22;23275;48.914;12.566;2023-06-14T08:37:02;23.80;79.10
37410;DHT22;23275;48.914;12.566;2023-06-14T08:39:27;24.00;76.20
37410;DHT22;23275;48.914;12.566;2023-06-14T08:41:54;24.00;78.10
37410;DHT22;23275;48.914;12.566;2023-06-14T08:44:21;24.30;82.30
37410;DHT22;23275;48.914;12.566;2023-06-14T08:46:48;24.60;76.90
37410;DHT22;23275;48.914;12.566;2023-06-14T08:49:16;24.40;79.40
37410;DHT22;23275;48.914;12.566;2023-06-14T08:51:43;24.40;75.00
37410;DHT22;23275;48.914;12.566;2023-06-14T08:54:10;24.40;76.40
37410;DHT22;23275;48.914;12.566;2023-06-14T08:56:38;24.30;76.20
37410;DHT22;23275;48.914;12.566;2023-06-14T08:59:04;24.40;77.70
37410;DHT22;23275;48.914;12.566;2023-06-14T09:01:33;24.50;80.90
37410;DHT22;23275;48.914;12.566;2023-06-14T09:04:00;24.80;82.70
37410;DHT22;23275;48.914;12.566;2023-06-14T09:06:26;25.00;76.30
37410;DHT22;23275;48.914;12.566;2023-06-14T09:08:54;25.10;75.10
37410;DHT22;23275;48.914;12.566;2023-06-14T09:11:22;25.20;71.30
37410;DHT22;23275;48.914;12.566;2023-06-14T09:13:48;25.00;71.70
37410;DHT22;23275;48.914;12.566;2023-06-14T09:16:14;25.00;75.50
37410;DHT22;23275;48.914;12.566;2023-06-14T09:18:45;25.30;72.00
37410;DHT22;23275;48.914;12.566;2023-06-14T09:21:16;25.40;69.10
37410;DHT22;23275;48.914;12.566;2023-06-14T09:23:46;25.70;68.50
37410;DHT22;23275;48.914;12.566;2023-06-14T09:26:17;25.80;69.60
37410;DHT22;23275;48.914;12.566;2023-06-14T09:28:46;25.90;68.90
37410;DHT22;23275;48.914;12.566;2023-06-14T09:31:14;26.20;67.90
37410;DHT22;23275;48.914;12.566;2023-06-14T09:33:47;26.40;71.60
37410;DHT22;23275;48.914;12.566;2023-06-14T09:36:23;26.50;69.50
37410;DHT22;23275;48.914;12.566;2023-06-14T09:39:03;26.60;68.80
37410;DHT22;23275;48.914;12.566;2023-06-14T09:44:02;26.70;67.20
37410;DHT22;23275;48.914;12.566;2023-06-14T09:46:28;26.80;67.20
37410;DHT22;23275;48.914;12.566;2023-06-14T09:48:55;26.50;70.80
37410;DHT22;23275;48.914;12.566;2023-06-14T09:51:22;26.40;73.30
37410;DHT22;23275;48.914;12.566;2023-06-14T09:53:49;26.20;68.10
37410;DHT22;23275;48.914;12.566;2023-06-14T09:56:40;26.20;72.60
37410;DHT22;23275;48.914;12.566;2023-06-14T09:59:06;26.10;68.80
37410;DHT22;23275;48.914;12.566;2023-06-14T10:01:35;25.80;73.00
37410;DHT22;23275;48.914;12.566;2023-06-14T10:04:07;25.60;67.40
37410;DHT22;23275;48.914;12.566;2023-06-14T10:06:36;25.00;68.80
37410;DHT22;23275;48.914;12.566;2023-06-14T10:09:03;24.80;75.10
37410;DHT22;23275;48.914;12.566;2023-06-14T10:11:29;24.60;67.50
37410;DHT22;23275;48.914;12.566;2023-06-14T10:13:56;24.20;70.60
37410;DHT22;23275;48.914;12.566;2023-06-14T10:16:27;23.80;70.40
37410;DHT22;23275;48.914;12.566;2023-06-14T10:24:37;23.90;76.80
37410;DHT22;23275;48.914;12.566;2023-06-14T10:27:06;24.10;74.60
37410;DHT22;23275;48.914;12.566;2023-06-14T10:32:27;24.70;80.80
37410;DHT22;23275;48.914;12.566;2023-06-14T10:35:05;25.00;77.50
37410;DHT22;23275;48.914;12.566;2023-06-14T10:37:34;24.80;75.70
37410;DHT22;23275;48.914;12.566;2023-06-14T10:40:00;24.40;73.70
37410;DHT22;23275;48.914;12.566;2023-06-14T10:42:32;24.30;74.90
37410;DHT22;23275;48.914;12.566;2023-06-14T10:44:59;24.60;79.60
37410;DHT22;23275;48.914;12.566;2023-06-14T10:47:32;24.60;69.30
37410;DHT22;23275;48.914;12.566;2023-06-14T10:50:07;25.00;73.80
37410;DHT22;23275;48.914;12.566;2023-06-14T10:52:38;25.40;73.30
37410;DHT22;23275;48.914;12.566;2023-06-14T10:55:08;25.80;76.10
37410;DHT22;23275;48.914;12.566;2023-06-14T10:57:58;25.70;73.10
37410;DHT22;23275;48.914;12.566;2023-06-14T11:00:28;25.60;74.60
37410;DHT22;23275;48.914;12.566;2023-06-14T11:03:15;25.40;70.40
37410;DHT22;23275;48.914;12.566;2023-06-14T11:05:57;25.40;68.90
37410;DHT22;23275;48.914;12.566;2023-06-14T11:08:56;25.20;68.60
37410;DHT22;23275;48.914;12.566;2023-06-14T11:11:32;25.10;71.00
37410;DHT22;23275;48.914;12.566;2023-06-14T11:14:00;25.30;73.30
37410;DHT22;23275;48.914;12.566;2023-06-14T11:16:27;25.90;74.70
37410;DHT22;23275;48.914;12.566;2023-06-14T11:18:53;26.60;73.00
37410;DHT22;23275;48.914;12.566;2023-06-14T11:21:19;27.20;70.50
37410;DHT22;23275;48.914;12.566;2023-06-14T11:23:50;27.50;73.50
37410;DHT22;23275;48.914;12.566;2023-06-14T11:26:16;28.00;67.70
37410;DHT22;23275;48.914;12.566;2023-06-14T11:28:55;28.70;69.10
37410;DHT22;23275;48.914;12.566;2023-06-14T11:31:20;29.00;64.20
37410;DHT22;23275;48.914;12.566;2023-06-14T11:33:50;29.50;64.40
37410;DHT22;23275;48.914;12.566;2023-06-14T11:36:16;28.90;58.90
37410;DHT22;23275;48.914;12.566;2023-06-14T11:38:42;28.10;64.90
37410;DHT22;23275;48.914;12.566;2023-06-14T11:41:07;27.30;62.80
37410;DHT22;23275;48.914;12.566;2023-06-14T11:43:33;26.50;67.40
37410;DHT22;23275;48.914;12.566;2023-06-14T11:46:00;25.90;66.30
37410;DHT22;23275;48.914;12.566;2023-06-14T11:48:40;25.00;65.00
37410;DHT22;23275;48.914;12.566;2023-06-14T11:51:06;24.60;64.40
37410;DHT22;23275;48.914;12.566;2023-06-14T11:53:32;24.20;66.00
37410;DHT22;23275;48.914;12.566;2023-06-14T11:55:58;24.10;70.40
37410;DHT22;23275;48.914;12.566;2023-06-14T11:58:25;24.10;72.30
37410;DHT22;23275;48.914;12.566;2023-06-14T12:00:52;24.10;71.60
37410;DHT22;23275;48.914;12.566;2023-06-14T12:03:23;24.30;71.80
37410;DHT22;23275;48.914;12.566;2023-06-14T12:05:49;24.40;70.60
37410;DHT22;23275;48.914;12.566;2023-06-14T12:08:14;24.80;72.20
37410;DHT22;23275;48.914;12.566;2023-06-14T12:10:43;25.10;71.10
37410;DHT22;23275;48.914;12.566;2023-06-14T12:13:09;25.20;71.10
37410;DHT22;23275;48.914;12.566;2023-06-14T12:15:35;25.30;71.10
37410;DHT22;23275;48.914;12.566;2023-06-14T12:18:01;25.50;70.70
37410;DHT22;23275;48.914;12.566;2023-06-14T12:20:31;25.40;68.50
37410;DHT22;23275;48.914;12.566;2023-06-14T12:23:03;25.50;68.90
37410;DHT22;23275;48.914;12.566;2023-06-14T12:27:58;25.40;70.10
37410;DHT22;23275;48.914;12.566;2023-06-14T12:30:24;24.90;67.80
37410;DHT22;23275;48.914;12.566;2023-06-14T12:32:50;24.50;68.00
37410;DHT22;23275;48.914;12.566;2023-06-14T12:35:17;24.20;69.70
37410;DHT22;23275;48.914;12.566;2023-06-14T12:37:44;24.00;70.70
37410;DHT22;23275;48.914;12.566;2023-06-14T12:40:10;23.80;69.20
37410;DHT22;23275;48.914;12.566;2023-06-14T12:42:36;23.70;71.60
37410;DHT22;23275;48.914;12.566;2023-06-14T12:45:02;23.60;70.70
37410;DHT22;23275;48.914;12.566;2023-06-14T12:47:28;23.40;69.20
37410;DHT22;23275;48.914;12.566;2023-06-14T12:49:53;23.30;71.70
37410;DHT22;23275;48.914;12.566;2023-06-14T12:52:19;23.10;71.80
37410;DHT22;23275;48.914;12.566;2023-06-14T12:54:45;23.00;72.30
37410;DHT22;23275;48.914;12.566;2023-06-14T12:57:10;23.00;71.30
37410;DHT22;23275;48.914;12.566;2023-06-14T12:59:36;23.00;77.20
37410;DHT22;23275;48.914;12.566;2023-06-14T13:04:37;23.00;72.20
37410;DHT22;23275;48.914;12.566;2023-06-14T13:07:03;23.00;77.30
37410;DHT22;23275;48.914;12.566;2023-06-14T13:09:29;22.90;69.70
37410;DHT22;23275;48.914;12.566;2023-06-14T13:11:55;22.80;71.50
37410;DHT22;23275;48.914;12.566;2023-06-14T13:14:20;22.90;70.30
37410;DHT22;23275;48.914;12.566;2023-06-14T13:16:46;22.90;73.60
37410;DHT22;23275;48.914;12.566;2023-06-14T13:19:11;23.00;74.60
37410;DHT22;23275;48.914;12.566;2023-06-14T13:21:37;23.10;71.20
37410;DHT22;23275;48.914;12.566;2023-06-14T13:24:02;23.20;70.10
37410;DHT22;23275;48.914;12.566;2023-06-14T13:26:28;23.20;70.50
37410;DHT22;23275;48.914;12.566;2023-06-14T13:28:54;23.30;72.90
37410;DHT22;23275;48.914;12.566;2023-06-14T13:31:19;23.30;76.80
37410;DHT22;23275;48.914;12.566;2023-06-14T13:33:45;23.30;72.90
37410;DHT22;23275;48.914;12.566;2023-06-14T13:36:10;23.20;72.90
37410;DHT22;23275;48.914;12.566;2023-06-14T13:38:36;23.20;71.20
37410;DHT22;23275;48.914;12.566;2023-06-14T13:41:01;23.10;71.90
37410;DHT22;23275;48.914;12.566;2023-06-14T13:43:27;23.10;70.10
37410;DHT22;23275;48.914;12.566;2023-06-14T13:45:53;23.10;70.70
37410;DHT22;23275;48.914;12.566;2023-06-14T13:48:18;23.20;71.10
37410;DHT22;23275;48.914;12.566;2023-06-14T13:50:44;23.00;71.60
37410;DHT22;23275;48.914;12.566;2023-06-14T13:53:11;22.60;73.20
37410;DHT22;23275;48.914;12.566;2023-06-14T13:55:37;22.60;77.20
37410;DHT22;23275;48.914;12.566;2023-06-14T13:58:02;22.70;72.10
37410;DHT22;23275;48.914;12.566;2023-06-14T14:00:28;23.00;73.80
37410;DHT22;23275;48.914;12.566;2023-06-14T14:02:54;23.30;74.80
37410;DHT22;23275;48.914;12.566;2023-06-14T14:05:20;23.50;75.10
37410;DHT22;23275;48.914;12.566;2023-06-14T14:07:46;23.60;76.00
37410;DHT22;23275;48.914;12.566;2023-06-14T14:10:11;23.70;72.30
37410;DHT22;23275;48.914;12.566;2023-06-14T14:12:38;23.90;71.00
37410;DHT22;23275;48.914;12.566;2023-06-14T14:15:05;23.90;70.20
37410;DHT22;23275;48.914;12.566;2023-06-14T14:17:37;24.00;72.00
37410;DHT22;23275;48.914;12.566;2023-06-14T14:20:03;24.30;69.30
37410;DHT22;23275;48.914;12.566;2023-06-14T14:22:29;24.40;66.00
37410;DHT22;23275;48.914;12.566;2023-06-14T14:24:54;24.60;66.60
37410;DHT22;23275;48.914;12.566;2023-06-14T14:27:20;24.60;66.70
37410;DHT22;23275;48.914;12.566;2023-06-14T14:29:45;24.40;64.80
37410;DHT22;23275;48.914;12.566;2023-06-14T14:32:11;24.30;65.20
37410;DHT22;23275;48.914;12.566;2023-06-14T14:34:39;24.40;68.00
37410;DHT22;23275;48.914;12.566;2023-06-14T14:37:05;24.50;64.60
37410;DHT22;23275;48.914;12.566;2023-06-14T14:39:30;24.50;64.90
37410;DHT22;23275;48.914;12.566;2023-06-14T14:41:56;24.50;68.20
37410;DHT22;23275;48.914;12.566;2023-06-14T14:44:22;24.60;64.60
37410;DHT22;23275;48.914;12.566;2023-06-14T14:46:47;24.60;65.80
37410;DHT22;23275;48.914;12.566;2023-06-14T14:49:13;24.50;65.40
37410;DHT22;23275;48.914;12.566;2023-06-14T14:51:38;24.40;66.10
37410;DHT22;23275;48.914;12.566;2023-06-14T14:54:05;24.20;65.90
37410;DHT22;23275;48.914;12.566;2023-06-14T14:56:31;24.10;70.70
37410;DHT22;23275;48.914;12.566;2023-06-14T14:58:57;24.10;66.10
37410;DHT22;23275;48.914;12.566;2023-06-14T15:01:22;23.80;66.60
37410;DHT22;23275;48.914;12.566;2023-06-14T15:03:48;23.60;68.70
37410;DHT22;23275;48.914;12.566;2023-06-14T15:06:14;23.50;69.20
37410;DHT22;23275;48.914;12.566;2023-06-14T15:08:39;23.60;70.90
37410;DHT22;23275;48.914;12.566;2023-06-14T15:11:05;23.70;69.40
37410;DHT22;23275;48.914;12.566;2023-06-14T15:13:30;23.70;68.60
37410;DHT22;23275;48.914;12.566;2023-06-14T15:15:56;23.80;69.10
37410;DHT22;23275;48.914;12.566;2023-06-14T15:18:21;23.70;68.10
37410;DHT22;23275;48.914;12.566;2023-06-14T15:20:48;23.50;69.30
37410;DHT22;23275;48.914;12.566;2023-06-14T15:23:15;23.40;69.80
37410;DHT22;23275;48.914;12.566;2023-06-14T15:25:46;23.20;69.80
37410;DHT22;23275;48.914;12.566;2023-06-14T15:28:14;23.20;70.50
37410;DHT22;23275;48.914;12.566;2023-06-14T15:30:40;23.00;69.60
37410;DHT22;23275;48.914;12.566;2023-06-14T15:33:06;23.00;73.80
37410;DHT22;23275;48.914;12.566;2023-06-14T15:35:33;22.90;72.60
37410;DHT22;23275;48.914;12.566;2023-06-14T15:37:59;22.90;72.80